createdAt,value
2018-06-05T00:01:16.949Z,19.10
2018-06-05T00:03:45.839Z,19.00
2018-06-05T00:06:14.792Z,18.90
2018-06-05T00:11:12.116Z,18.90
2018-06-05T00:13:41.085Z,18.90
2018-06-05T00:16:09.923Z,18.90
2018-06-05T00:18:38.849Z,18.80
2018-06-05T00:21:07.753Z,18.80
2018-06-05T00:23:36.812Z,18.90
2018-06-05T00:26:05.717Z,18.80
2018-06-05T00:31:03.189Z,18.40
2018-06-05T00:36:00.540Z,18.20
2018-06-05T00:38:29.524Z,18.30
2018-06-05T00:40:58.496Z,18.30
2018-06-05T00:43:27.419Z,18.30
2018-06-05T00:45:56.393Z,18.30
2018-06-05T00:48:25.263Z,18.40
2018-06-05T00:50:54.169Z,18.40
2018-06-05T00:53:23.027Z,18.40
2018-06-05T00:55:51.949Z,18.40
2018-06-05T00:58:20.840Z,18.40
2018-06-05T01:00:49.782Z,18.50
2018-06-05T01:03:18.731Z,18.40
2018-06-05T01:05:47.612Z,18.40
2018-06-05T01:08:16.544Z,18.30
2018-06-05T01:10:45.421Z,18.30
2018-06-05T01:13:14.401Z,18.30
2018-06-05T01:15:43.308Z,18.30
2018-06-05T01:18:12.233Z,18.20
2018-06-05T01:20:41.133Z,18.20
2018-06-05T01:23:10.124Z,18.20
2018-06-05T01:25:39.089Z,18.20
2018-06-05T01:30:36.487Z,18.10
2018-06-05T01:33:05.440Z,18.00
2018-06-05T01:35:34.354Z,18.10
2018-06-05T01:38:03.308Z,18.10
2018-06-05T01:40:32.181Z,18.20
2018-06-05T01:43:01.100Z,18.20
2018-06-05T01:45:30.024Z,18.20
2018-06-05T01:47:58.909Z,18.20
2018-06-05T01:52:57.344Z,18.10
2018-06-05T01:55:26.212Z,18.10
2018-06-05T01:57:55.123Z,18.10
2018-06-05T02:00:23.990Z,18.00
2018-06-05T02:02:52.901Z,17.90
2018-06-05T02:05:21.773Z,17.90
2018-06-05T02:07:50.706Z,17.80
2018-06-05T02:10:19.648Z,17.80
2018-06-05T02:12:48.604Z,17.80
2018-06-05T02:15:17.525Z,17.90
2018-06-05T02:17:46.496Z,17.90
2018-06-05T02:20:15.410Z,17.90
2018-06-05T02:22:44.364Z,17.90
2018-06-05T02:25:13.301Z,17.90
2018-06-05T02:27:42.223Z,17.90
2018-06-05T02:30:11.118Z,17.90
2018-06-05T02:32:40.036Z,17.90
2018-06-05T02:35:08.971Z,17.90
2018-06-05T02:37:37.853Z,17.80
2018-06-05T02:40:06.784Z,17.80
2018-06-05T02:42:35.673Z,17.80
2018-06-05T02:45:04.640Z,17.80
2018-06-05T02:47:33.562Z,17.80
2018-06-05T02:50:02.434Z,17.80
2018-06-05T02:52:31.353Z,17.80
2018-06-05T02:55:00.272Z,17.80
2018-06-05T02:57:29.130Z,17.80
2018-06-05T02:59:58.058Z,17.80
2018-06-05T03:07:24.141Z,17.80
2018-06-05T03:09:53.033Z,17.80
2018-06-05T03:12:22.008Z,17.80
2018-06-05T03:14:50.902Z,17.80
2018-06-05T03:17:19.776Z,17.80
2018-06-05T03:19:48.708Z,17.80
2018-06-05T03:22:17.589Z,17.80
2018-06-05T03:24:46.532Z,17.80
2018-06-05T03:27:15.712Z,17.80
2018-06-05T03:29:44.594Z,17.80
2018-06-05T03:32:13.518Z,17.80
2018-06-05T03:34:42.460Z,17.80
2018-06-05T03:37:11.349Z,17.80
2018-06-05T03:39:40.296Z,17.80
2018-06-05T03:42:09.236Z,17.80
2018-06-05T03:44:38.221Z,17.80
2018-06-05T03:47:07.121Z,17.80
2018-06-05T03:49:42.658Z,17.70
2018-06-05T03:52:11.641Z,17.70
2018-06-05T03:54:40.588Z,17.70
2018-06-05T03:57:09.503Z,17.70
2018-06-05T03:59:38.408Z,17.70
2018-06-05T04:02:07.304Z,17.70
2018-06-05T04:04:36.257Z,17.70
2018-06-05T04:07:05.189Z,17.70
2018-06-05T04:09:34.075Z,17.80
2018-06-05T04:14:31.465Z,17.80
2018-06-05T04:17:00.377Z,17.70
2018-06-05T04:19:29.297Z,17.70
2018-06-05T04:21:58.187Z,17.60
2018-06-05T04:24:28.073Z,17.70
2018-06-05T04:26:57.021Z,17.70
2018-06-05T04:31:54.391Z,17.60
2018-06-05T04:36:51.783Z,17.70
2018-06-05T04:39:20.720Z,17.70
2018-06-05T04:41:49.680Z,17.80
2018-06-05T04:44:18.570Z,17.80
2018-06-05T04:46:47.533Z,17.80
2018-06-05T04:51:44.908Z,17.90
2018-06-05T04:54:13.829Z,18.00
2018-06-05T04:56:42.753Z,18.00
2018-06-05T04:59:11.666Z,17.90
2018-06-05T05:04:09.064Z,18.00
2018-06-05T05:06:37.944Z,18.00
2018-06-05T05:09:07.646Z,18.10
2018-06-05T05:14:05.054Z,18.20
2018-06-05T05:16:34.025Z,18.20
2018-06-05T05:19:02.920Z,18.20
2018-06-05T05:21:31.857Z,18.30
2018-06-05T05:24:00.850Z,18.30
2018-06-05T05:26:29.812Z,18.30
2018-06-05T05:28:58.781Z,18.30
2018-06-05T05:33:56.201Z,18.30
2018-06-05T05:36:25.122Z,18.30
2018-06-05T05:38:54.033Z,18.30
2018-06-05T05:41:22.935Z,18.30
2018-06-05T05:43:51.860Z,18.40
2018-06-05T05:46:20.749Z,18.40
2018-06-05T05:48:49.686Z,18.50
2018-06-05T05:53:47.092Z,18.70
2018-06-05T05:56:16.068Z,18.90
2018-06-05T05:58:44.996Z,19.00
2018-06-05T06:01:14.324Z,19.10
2018-06-05T06:03:43.266Z,19.20
2018-06-05T06:06:12.157Z,19.30
2018-06-05T06:08:41.175Z,19.40
2018-06-05T06:11:10.085Z,19.50
2018-06-05T06:13:39.050Z,19.60
2018-06-05T06:16:07.973Z,19.70
2018-06-05T06:18:36.917Z,19.80
2018-06-05T06:21:05.968Z,19.90
2018-06-05T06:23:34.861Z,20.00
2018-06-05T06:26:03.811Z,20.00
2018-06-05T06:28:32.779Z,20.10
2018-06-05T06:31:01.686Z,20.10
2018-06-05T06:33:30.602Z,20.20
2018-06-05T06:35:59.497Z,20.20
2018-06-05T06:38:28.494Z,20.20
2018-06-05T06:40:57.354Z,20.20
2018-06-05T06:43:26.238Z,20.30
2018-06-05T06:45:55.178Z,20.20
2018-06-05T06:48:24.050Z,20.30
2018-06-05T06:50:52.978Z,20.30
2018-06-05T06:55:50.543Z,20.40
2018-06-05T06:58:19.459Z,20.50
2018-06-05T07:00:48.633Z,20.60
2018-06-05T07:03:17.514Z,20.70
2018-06-05T07:05:46.650Z,20.70
2018-06-05T07:08:15.537Z,20.80
2018-06-05T07:10:44.464Z,20.90
2018-06-05T07:13:13.345Z,21.00
2018-06-05T07:15:42.225Z,21.00
2018-06-05T07:18:11.180Z,21.10
2018-06-05T07:20:40.115Z,21.10
2018-06-05T07:23:09.000Z,21.20
2018-06-05T07:25:37.955Z,21.20
2018-06-05T07:30:35.350Z,21.60
2018-06-05T07:33:04.271Z,21.60
2018-06-05T07:35:33.196Z,21.80
2018-06-05T07:38:02.161Z,21.80
2018-06-05T07:40:31.122Z,21.90
2018-06-05T07:43:00.144Z,21.90
2018-06-05T07:45:29.040Z,21.90
2018-06-05T07:47:57.985Z,22.10
2018-06-05T07:50:27.034Z,22.10
2018-06-05T07:52:55.972Z,22.30
2018-06-05T07:55:24.932Z,22.30
2018-06-05T07:57:53.885Z,22.40
2018-06-05T08:00:22.723Z,22.50
2018-06-05T08:02:51.647Z,22.70
2018-06-05T08:05:20.609Z,22.90
2018-06-05T08:07:49.505Z,23.10
2018-06-05T08:10:18.445Z,23.10
2018-06-05T08:12:47.346Z,23.20
2018-06-05T08:15:16.321Z,23.30
2018-06-05T08:17:45.214Z,23.50
2018-06-05T08:20:14.142Z,23.60
2018-06-05T08:22:55.737Z,23.60
2018-06-05T08:25:24.716Z,23.80
2018-06-05T08:27:53.621Z,24.00
2018-06-05T08:30:22.541Z,24.00
2018-06-05T08:32:51.438Z,24.10
2018-06-05T08:35:20.385Z,24.20
2018-06-05T08:37:49.323Z,24.30
2018-06-05T08:40:18.296Z,24.40
2018-06-05T08:47:44.329Z,24.70
2018-06-05T08:50:13.220Z,24.80
2018-06-05T08:52:42.156Z,24.90
2018-06-05T08:55:11.093Z,25.00
2018-06-05T08:57:40.024Z,25.00
2018-06-05T09:02:37.429Z,25.30
2018-06-05T09:05:06.308Z,25.40
2018-06-05T09:07:35.188Z,25.50
2018-06-05T09:10:04.108Z,25.60
2018-06-05T09:12:32.992Z,25.60
2018-06-05T09:15:01.928Z,25.70
2018-06-05T09:17:30.814Z,25.80
2018-06-05T09:19:59.765Z,25.90
2018-06-05T09:22:28.676Z,26.00
2018-06-05T09:24:57.624Z,26.10
2018-06-05T09:27:26.622Z,26.20
2018-06-05T09:29:55.533Z,26.20
2018-06-05T09:32:24.467Z,26.30
2018-06-05T09:34:53.388Z,26.40
2018-06-05T09:37:22.288Z,26.50
2018-06-05T09:39:51.205Z,26.60
2018-06-05T09:42:20.081Z,26.60
2018-06-05T09:44:49.057Z,26.70
2018-06-05T09:47:18.016Z,26.80
2018-06-05T09:49:46.953Z,26.90
2018-06-05T09:52:15.867Z,27.00
2018-06-05T09:54:44.729Z,27.10
2018-06-05T09:57:13.632Z,27.20
2018-06-05T09:59:42.505Z,27.20
2018-06-05T10:02:11.402Z,27.30
2018-06-05T10:04:40.285Z,27.30
2018-06-05T10:07:09.176Z,27.50
2018-06-05T10:12:06.655Z,27.70
2018-06-05T10:14:35.609Z,27.80
2018-06-05T10:17:04.509Z,27.90
2018-06-05T10:19:33.410Z,28.10
2018-06-05T10:22:02.326Z,28.10
2018-06-05T10:24:31.264Z,28.10
2018-06-05T10:27:00.165Z,28.20
2018-06-05T10:29:29.070Z,28.30
2018-06-05T10:34:26.481Z,28.50
2018-06-05T10:36:55.409Z,28.60
2018-06-05T10:39:24.352Z,28.70
2018-06-05T10:41:53.247Z,28.80
2018-06-05T10:44:22.178Z,28.80
2018-06-05T10:46:51.078Z,29.00
2018-06-05T10:49:20.024Z,29.00
2018-06-05T10:51:48.910Z,29.10
2018-06-05T10:54:17.896Z,29.20
2018-06-05T10:56:46.860Z,29.20
2018-06-05T11:01:44.262Z,29.50
2018-06-05T11:04:13.210Z,29.60
2018-06-05T11:06:42.102Z,29.60
2018-06-05T11:09:11.401Z,29.60
2018-06-05T11:11:40.364Z,29.70
2018-06-05T11:14:09.228Z,29.90
2018-06-05T11:16:38.163Z,29.90
2018-06-05T11:19:07.092Z,29.90
2018-06-05T11:21:36.035Z,30.00
2018-06-05T11:24:04.925Z,30.20
2018-06-05T11:26:33.853Z,30.30
2018-06-05T11:29:02.779Z,30.30
2018-06-05T11:31:31.705Z,30.40
2018-06-05T11:34:00.618Z,30.40
2018-06-05T11:36:29.557Z,30.50
2018-06-05T11:38:58.522Z,30.40
2018-06-05T11:41:27.469Z,30.50
2018-06-05T11:43:56.390Z,30.70
2018-06-05T11:46:25.288Z,30.90
2018-06-05T11:51:22.705Z,30.90
2018-06-05T11:53:51.632Z,30.90
2018-06-05T11:56:20.533Z,31.10
2018-06-05T11:58:49.516Z,31.10
2018-06-05T12:01:18.461Z,31.20
2018-06-05T12:03:47.393Z,31.40
2018-06-05T12:06:16.333Z,31.60
2018-06-05T12:08:45.252Z,31.80
2018-06-05T12:11:14.181Z,31.90
2018-06-05T12:13:43.414Z,31.90
2018-06-05T12:16:12.374Z,31.70
2018-06-05T12:18:41.281Z,31.20
2018-06-05T12:21:10.206Z,30.50
2018-06-05T12:23:39.216Z,29.70
2018-06-05T12:26:08.085Z,29.10
2018-06-05T12:28:37.009Z,28.00
2018-06-05T12:31:05.930Z,27.10
2018-06-05T12:36:03.362Z,26.20
2018-06-05T12:41:01.058Z,25.60
2018-06-05T12:43:29.941Z,25.50
2018-06-05T12:45:58.861Z,25.40
2018-06-05T12:48:27.774Z,25.20
2018-06-05T12:53:25.232Z,25.00
2018-06-05T12:55:54.172Z,24.90
2018-06-05T12:58:23.246Z,24.80
2018-06-05T13:00:52.180Z,24.50
2018-06-05T13:03:21.097Z,24.60
2018-06-05T13:05:50.030Z,24.60
2018-06-05T13:08:18.967Z,24.50
2018-06-05T13:10:47.994Z,24.50
2018-06-05T13:15:45.589Z,24.50
2018-06-05T13:18:14.969Z,24.50
2018-06-05T13:23:13.201Z,24.30
2018-06-05T13:25:42.037Z,23.70
2018-06-05T13:28:10.985Z,22.50
2018-06-05T13:30:40.021Z,22.30
2018-06-05T13:33:08.915Z,22.30
2018-06-05T13:38:06.381Z,22.70
2018-06-05T13:40:35.357Z,22.80
2018-06-05T13:43:04.260Z,23.00
2018-06-05T13:45:33.201Z,23.00
2018-06-05T13:48:02.111Z,23.00
2018-06-05T13:50:31.082Z,22.80
2018-06-05T13:53:00.253Z,22.80
2018-06-05T13:57:57.749Z,22.90
2018-06-05T14:00:27.453Z,23.00
2018-06-05T14:02:56.687Z,23.20
2018-06-05T14:05:26.022Z,23.40
2018-06-05T14:07:55.737Z,23.50
2018-06-05T14:10:26.683Z,23.60
2018-06-05T14:15:24.666Z,23.70
2018-06-05T14:17:53.924Z,23.70
2018-06-05T14:20:22.841Z,23.80
2018-06-05T14:22:52.675Z,23.90
2018-06-05T14:30:18.757Z,24.10
2018-06-05T14:32:47.910Z,24.20
2018-06-05T14:35:16.896Z,24.20
2018-06-05T14:37:45.805Z,24.20
2018-06-05T14:40:14.711Z,24.20
2018-06-05T14:45:13.281Z,24.20
2018-06-05T14:47:42.437Z,24.20
2018-06-05T14:50:12.117Z,24.20
2018-06-05T14:55:09.799Z,24.20
2018-06-05T14:57:38.733Z,24.20
2018-06-05T15:00:07.654Z,24.20
2018-06-05T15:02:36.658Z,24.20
2018-06-05T15:05:05.625Z,24.20
2018-06-05T15:07:34.622Z,24.30
2018-06-05T15:10:03.522Z,24.20
2018-06-05T15:17:29.771Z,24.20
2018-06-05T15:19:58.668Z,24.20
2018-06-05T15:22:27.613Z,24.20
2018-06-05T15:24:56.792Z,24.20
2018-06-05T15:29:54.177Z,24.00
2018-06-05T15:32:23.132Z,24.00
2018-06-05T15:34:52.029Z,24.00
2018-06-05T15:37:20.934Z,24.00
2018-06-05T15:42:18.392Z,24.00
2018-06-05T15:44:47.330Z,24.00
2018-06-05T15:47:16.248Z,24.00
2018-06-05T15:49:45.181Z,24.00
2018-06-05T15:52:14.129Z,24.00
2018-06-05T15:54:43.021Z,24.00
2018-06-05T15:57:11.941Z,24.00
2018-06-05T15:59:40.872Z,24.00
2018-06-05T16:02:09.753Z,24.00
2018-06-05T16:04:38.740Z,24.00
2018-06-05T16:07:07.654Z,24.00
2018-06-05T16:09:36.581Z,24.00
2018-06-05T16:12:05.577Z,23.90
2018-06-05T16:14:34.489Z,23.90
2018-06-05T16:17:03.469Z,23.90
2018-06-05T16:19:32.442Z,23.90
2018-06-05T16:24:30.241Z,23.80
2018-06-05T16:26:59.170Z,23.80
2018-06-05T16:29:28.128Z,23.80
2018-06-05T16:31:57.077Z,23.80
2018-06-05T16:34:25.949Z,23.90
2018-06-05T16:36:54.930Z,23.90
2018-06-05T16:39:24.466Z,23.80
2018-06-05T16:41:53.353Z,23.80
2018-06-05T16:44:22.271Z,23.80
2018-06-05T16:46:51.181Z,23.70
2018-06-05T16:49:20.097Z,23.80
2018-06-05T16:51:48.964Z,23.70
2018-06-05T16:54:17.897Z,23.70
2018-06-05T16:56:46.836Z,23.60
2018-06-05T16:59:15.737Z,23.60
2018-06-05T17:01:44.730Z,23.60
2018-06-05T17:04:13.690Z,23.50
2018-06-05T17:06:42.596Z,23.50
2018-06-05T17:09:11.477Z,23.50
2018-06-05T17:11:40.390Z,23.50
2018-06-05T17:14:09.368Z,23.50
2018-06-05T17:16:38.273Z,23.40
2018-06-05T17:19:07.168Z,23.40
2018-06-05T17:21:36.105Z,23.40
2018-06-05T17:24:04.981Z,23.40
2018-06-05T17:26:33.889Z,23.40
2018-06-05T17:29:02.832Z,23.30
2018-06-05T17:31:31.713Z,23.30
2018-06-05T17:34:00.656Z,23.20
2018-06-05T17:36:29.584Z,23.10
2018-06-05T17:38:58.467Z,23.00
2018-06-05T17:41:27.409Z,22.90
2018-06-05T17:48:53.449Z,22.80
2018-06-05T17:51:22.398Z,22.70
2018-06-05T17:53:51.284Z,22.70
2018-06-05T17:56:20.226Z,22.60
2018-06-05T17:58:49.565Z,22.60
2018-06-05T18:01:18.531Z,22.60
2018-06-05T18:08:44.464Z,22.70
2018-06-05T18:11:13.508Z,22.70
2018-06-05T18:13:42.460Z,22.70
2018-06-05T18:16:11.438Z,22.60
2018-06-05T18:18:40.435Z,22.60
2018-06-05T18:21:09.429Z,22.60
2018-06-05T18:23:38.376Z,22.60
2018-06-05T18:26:07.320Z,22.60
2018-06-05T18:28:36.344Z,22.60
2018-06-05T18:31:05.312Z,22.60
2018-06-05T18:33:34.261Z,22.60
2018-06-05T18:36:03.233Z,22.60
2018-06-05T18:38:32.172Z,22.50
2018-06-05T18:41:01.078Z,22.40
2018-06-05T18:43:30.621Z,22.40
2018-06-05T18:45:59.862Z,22.40
2018-06-05T18:48:28.903Z,22.40
2018-06-05T18:50:58.061Z,22.30
2018-06-05T18:53:27.199Z,22.30
2018-06-05T18:55:56.684Z,22.20
2018-06-05T18:58:25.574Z,22.20
2018-06-05T19:00:56.063Z,22.10
2018-06-05T19:03:24.991Z,22.10
2018-06-05T19:08:22.777Z,22.00
2018-06-05T19:13:20.626Z,21.80
2018-06-05T19:15:49.924Z,21.80
2018-06-05T19:18:19.041Z,21.70
2018-06-05T19:23:17.705Z,21.50
2018-06-05T19:25:46.677Z,21.50
2018-06-05T19:28:15.589Z,21.40
2018-06-05T19:30:44.600Z,21.50
2018-06-05T19:33:13.544Z,21.40
2018-06-05T19:35:42.451Z,21.30
2018-06-05T19:38:11.477Z,21.30
2018-06-05T19:40:40.409Z,21.30
2018-06-05T19:45:37.797Z,21.10
2018-06-05T19:48:06.733Z,20.80
2018-06-05T19:50:35.662Z,20.70
2018-06-05T19:53:04.776Z,20.70
2018-06-05T19:55:33.669Z,20.70
2018-06-05T19:58:02.605Z,20.80
2018-06-05T20:00:31.593Z,20.80
2018-06-05T20:03:00.520Z,20.70
2018-06-05T20:05:29.423Z,20.70
2018-06-05T20:07:58.413Z,20.60
2018-06-05T20:12:55.959Z,20.50
2018-06-05T20:15:24.896Z,20.60
2018-06-05T20:17:53.816Z,20.50
2018-06-05T20:20:22.813Z,20.40
2018-06-05T20:22:51.713Z,20.40
2018-06-05T20:25:20.632Z,20.30
2018-06-05T20:27:49.548Z,20.30
2018-06-05T20:30:18.571Z,20.30
2018-06-05T20:32:47.473Z,20.20
2018-06-05T20:35:16.503Z,20.00
2018-06-05T20:37:45.484Z,19.90
2018-06-05T20:40:14.432Z,19.80
2018-06-05T20:42:43.345Z,19.60
2018-06-05T20:45:12.437Z,19.60
2018-06-05T20:47:41.313Z,19.60
2018-06-05T20:50:10.237Z,19.60
2018-06-05T20:52:39.150Z,19.50
2018-06-05T20:57:36.638Z,19.50
2018-06-05T21:00:06.114Z,19.50
2018-06-05T21:02:35.025Z,19.60
2018-06-05T21:05:04.002Z,19.60
2018-06-05T21:07:32.926Z,19.60
2018-06-05T21:10:01.838Z,19.50
2018-06-05T21:12:30.784Z,19.50
2018-06-05T21:14:59.693Z,19.50
2018-06-05T21:17:28.600Z,19.50
2018-06-05T21:19:57.501Z,19.50
2018-06-05T21:22:26.457Z,19.50
2018-06-05T21:32:20.873Z,19.40
2018-06-05T21:34:49.800Z,19.30
2018-06-05T21:39:47.336Z,19.20
2018-06-05T21:42:16.275Z,19.20
2018-06-05T21:44:45.150Z,19.20
2018-06-05T21:49:42.640Z,19.20
2018-06-05T21:52:11.632Z,19.10
2018-06-05T21:54:40.589Z,19.10
2018-06-05T21:59:38.085Z,19.00
2018-06-05T22:02:07.085Z,19.00
2018-06-05T22:04:35.979Z,18.90
2018-06-05T22:07:04.944Z,18.90
2018-06-05T22:09:33.905Z,18.80
2018-06-05T22:12:02.826Z,18.80
2018-06-05T22:14:31.705Z,18.80
2018-06-05T22:17:00.641Z,18.80
2018-06-05T22:19:29.584Z,18.80
2018-06-05T22:21:58.608Z,18.80
2018-06-05T22:26:56.003Z,18.60
2018-06-05T22:29:24.905Z,18.60
2018-06-05T22:31:53.833Z,18.60
2018-06-05T22:34:22.745Z,18.60
2018-06-05T22:39:20.180Z,18.60
2018-06-05T22:41:49.105Z,18.50
2018-06-05T22:44:18.011Z,18.50
2018-06-05T22:46:46.980Z,18.40
2018-06-05T22:49:15.930Z,18.40
2018-06-05T22:51:44.933Z,18.40
2018-06-05T22:54:13.825Z,18.30
2018-06-05T22:56:42.797Z,18.40
2018-06-05T22:59:11.725Z,18.30
2018-06-05T23:01:40.618Z,18.30
2018-06-05T23:04:09.577Z,18.20
2018-06-05T23:09:17.150Z,18.00
2018-06-05T23:11:46.084Z,18.00
2018-06-05T23:14:15.025Z,18.00
2018-06-05T23:19:12.449Z,18.10
2018-06-05T23:21:41.380Z,18.10
2018-06-05T23:24:10.663Z,18.20
2018-06-05T23:29:08.109Z,18.20
2018-06-05T23:31:37.026Z,18.20
2018-06-05T23:34:06.002Z,18.20
2018-06-05T23:36:34.928Z,18.20
2018-06-05T23:39:04.129Z,18.20
2018-06-05T23:41:33.042Z,18.20
2018-06-05T23:44:02.022Z,18.20
2018-06-05T23:46:30.944Z,18.20
2018-06-05T23:48:59.917Z,18.20
2018-06-05T23:51:28.943Z,18.20
2018-06-05T23:53:57.872Z,18.20
2018-06-05T23:56:26.897Z,18.20
